Latest Coastal Weather Observations for Cape Borda

IDT60701

Issued at 6:32 am EST Saturday 30 May 2015 (issued every 10 minutes, with the page automatically refreshed every 10 minutes)

About coastal observations | Map of coastal stations | Coastal observations for TAS | Marine services | Other Formats
Station Details ID: 022823 Name: CAPE BORDA Lat: -35.75 Lon: 136.60 Height: 158.0 m
Data from the previous 72 hours. | See also: Recent months at Cape Borda
Date/Time
EST
Temp

°C
Wind Pressure Rain
since 9am
mm
Weather Cloud Vis
km
Sea
Height
m
Swell
Dir
 
Speed
knots
Gust
knots
hPa Trend Height
m
Period
s
Dir
30/06:30am 13.2 W 14 23 1021.5 - 1.0 - - - - - - -
30/06:00am 13.2 W 15 22 1021.5 - 1.0 - - - - - - -
30/05:30am 13.2 W 17 23 1021.4 - 1.0 - - - - - - -
30/05:12am 13.2 WNW 15 25 1021.3 - 1.0 - - - - - - -
30/05:00am 13.1 WNW 15 20 1021.3 - 1.0 - - - - - - -
30/04:30am 13.1 W 15 20 1021.4 - 1.0 - - - - - - -
30/04:00am 13.1 WNW 15 25 1021.6 - 1.0 - - - - - - -
30/03:59am 13.1 WNW 15 25 1021.6 - 1.0 - - - - - - -
30/03:30am 12.7 W 11 19 1021.8 - 1.0 - - - - - - -
30/03:00am 13.4 WNW 14 20 1021.8 - 1.0 - - - - - - -
30/02:30am 12.9 WNW 14 19 1021.9 - 1.0 - - - - - - -
30/02:00am 12.9 WNW 13 19 1021.9 - 1.0 - - - - - - -
30/01:30am 12.9 WNW 13 18 1022.1 - 1.0 - - - - - - -
30/01:00am 12.8 WNW 13 21 1022.4 - 1.0 - - - - - - -
30/12:30am 12.5 WNW 9 15 1022.7 - 1.0 - - - - - - -
30/12:00am 12.4 WNW 10 15 1023.0 - 1.0 - - - - - - -
 
Date/Time
EST
Temp

°C
Wind Pressure Rain
since 9am
mm
Weather Cloud Vis
km
Sea
Height
m
Swell
Dir
 
Speed
knots
Gust
knots
hPa Trend Height
m
Period
s
Dir
29/11:30pm 12.5 WNW 11 16 1023.3 - 1.0 - - - - - - -
29/11:00pm 12.1 WNW 9 13 1023.3 - 1.0 - - - - - - -
29/10:30pm 12.2 NW 9 14 1023.4 - 1.0 - - - - - - -
29/10:00pm 11.7 NW 9 11 1023.4 - 1.0 - - - - - - -
29/09:30pm 11.8 NW 9 12 1023.5 - 1.0 - - - - - - -
29/09:00pm 12.0 W 9 13 1023.5 - 0.6 - - - - - - -
29/08:30pm 12.5 WNW 7 11 1023.3 - 0.4 - - - - - - -
29/08:00pm 11.4 WNW 7 9 1023.3 - 0.4 - - - - - - -
29/07:30pm 11.7 W 8 11 1023.1 - 0.4 - - - - - - -
29/07:00pm 11.2 W 5 7 1023.1 - 0.4 - - - - - - -
29/06:30pm 11.8 W 7 9 1023.0 - 0.4 - - - - - - -
29/06:00pm 11.1 W 5 8 1022.9 - 0.4 - - - - - - -
29/05:30pm 11.8 WSW 6 8 1022.9 - 0.4 - - - - - - -
29/05:00pm 13.0 WSW 7 10 1022.9 - 0.4 - - - - - - -
29/04:30pm 13.5 WSW 8 11 1022.9 - 0.4 - - - - - - -
29/04:00pm 13.7 W 12 16 1022.9 - 0.4 - - - - - - -
29/03:30pm 13.6 SW 8 11 1022.6 R 0.4 Distant precip. Mostly cloudy 18 1 8.0 11 SW
29/03:00pm 13.7 SW 9 13 1022.7 - 0.4 - - - - - - -
29/02:30pm 14.1 WSW 9 13 1022.8 - 0.4 - - - - - - -
29/02:00pm 13.5 WSW 9 13 1022.9 - 0.4 - - - - - - -
29/01:30pm 13.5 W 8 12 1023.0 - 0.4 - - - - - - -
29/01:00pm 13.9 WSW 9 12 1023.1 - 0.2 - - - - - - -
29/12:30pm 13.8 SW 11 15 1023.2 - 0.2 - - - - - - -
29/12:00pm 13.9 WSW 11 14 1023.5 - 0.2 - - - - - - -
29/11:30am 13.7 WSW 12 16 1023.7 - 0.2 - - - - - - -
29/11:00am 12.4 WSW 10 17 1023.8 - 0.0 - - - - - - -
29/10:30am 12.5 WSW 8 11 1023.7 - 0.0 - - - - - - -
29/10:00am 11.2 W 10 19 1023.7 - 0.0 - - - - - - -
29/09:30am 12.2 WSW 10 16 1023.4 S 0.8 Distant precip. Mostly cloudy 15 1 - - SW
29/09:00am 11.0 SW 9 14 1023.2 - 0.8 - - - - - - -
29/08:30am 10.9 W 8 14 1023.1 - 0.8 - - - - - - -
29/08:00am 10.8 WSW 8 17 1023.0 - 0.8 - - - - - - -
29/07:30am 10.2 SW 9 13 1022.6 - 0.8 - - - - - - -
29/07:00am 10.3 SW 6 11 1022.4 - 0.6 - - - - - - -
29/06:30am 11.2 WSW 13 24 1022.2 - 0.6 - - - - - - -
29/06:00am 11.7 WSW 13 19 1022.0 - 0.6 - - - - - - -
29/05:30am 11.8 WSW 11 16 1021.8 - 0.6 - - - - - - -
29/05:00am 11.5 WSW 9 14 1021.8 - 0.6 - - - - - - -
29/04:30am 11.2 WSW 12 16 1021.6 - 0.6 - - - - - - -
29/04:00am 11.2 SW 11 16 1021.3 - 0.6 - - - - - - -
29/03:30am 11.2 SW 13 19 1021.0 - 0.6 - - - - - - -
29/03:00am 11.6 SW 14 21 1021.0 - 0.6 - - - - - - -
29/02:30am 11.8 WSW 13 19 1021.0 - 0.6 - - - - - - -
29/02:00am 11.9 WSW 12 17 1021.0 - 0.6 - - - - - - -
29/01:30am 11.9 WSW 13 18 1021.1 - 0.6 - - - - - - -
29/01:00am 11.8 W 13 18 1021.3 - 0.6 - - - - - - -
29/12:30am 11.3 WSW 12 19 1021.0 - 0.6 - - - - - - -
29/12:00am 10.7 WSW 9 13 1021.3 - 0.6 - - - - - - -
 
Date/Time
EST
Temp

°C
Wind Pressure Rain
since 9am
mm
Weather Cloud Vis
km
Sea
Height
m
Swell
Dir
 
Speed
knots
Gust
knots
hPa Trend Height
m
Period
s
Dir
28/11:30pm 11.0 WSW 10 14 1021.4 - 0.4 - - - - - - -
28/11:00pm 10.5 SW 10 13 1021.4 - 0.4 - - - - - - -
28/10:30pm 12.1 WSW 11 16 1021.0 - 0.0 - - - - - - -
28/10:00pm 11.9 W 10 16 1020.6 - 0.0 - - - - - - -
28/09:30pm 12.5 W 11 18 1020.4 - 0.0 - - - - - - -
28/09:00pm 12.5 WSW 11 17 1020.1 - 0.0 - - - - - - -
28/08:30pm 12.5 WSW 11 17 1019.9 - 0.0 - - - - - - -
28/08:00pm 12.4 WSW 12 16 1019.6 - 0.0 - - - - - - -
28/07:30pm 12.5 WSW 12 17 1019.4 - 0.0 - - - - - - -
28/07:00pm 12.3 WSW 11 17 1019.0 - 0.0 - - - - - - -
28/06:30pm 12.8 WSW 15 21 1018.7 - 0.0 - - - - - - -
28/06:00pm 12.7 WSW 11 17 1018.4 - 0.0 - - - - - - -
28/05:30pm 13.3 WSW 14 19 1017.9 - 0.0 - - - - - - -
28/05:00pm 13.8 WSW 16 22 1017.8 - 0.0 - - - - - - -
28/04:30pm 13.7 WSW 16 22 1017.5 - 0.0 - - - - - - -
28/04:00pm 14.0 WSW 14 19 1017.3 - 0.0 - - - - - - -
28/03:30pm 13.6 WSW 17 22 1017.1 R 0.0 Fine Mostly cloudy 15 2 6.1 8 SW
28/03:11pm 13.6 WSW 15 25 1017.0 - 0.0 - - - - - - -
28/03:00pm 14.2 WSW 15 21 1016.9 - 0.0 - - - - - - -
28/02:30pm 13.6 WSW 14 21 1016.8 - 0.0 - - - - - - -
28/02:00pm 14.1 WSW 11 15 1016.9 - 0.0 - - - - - - -
28/01:30pm 13.4 WSW 14 19 1017.1 - 0.0 - - - - - - -
28/01:04pm 14.4 W 18 28 1017.0 - 0.0 - - - - - - -
28/01:00pm 16.0 W 17 23 1016.9 - 0.0 - - - - - - -
28/12:30pm 15.5 W 18 27 1017.2 - 0.0 - - - - - - -
28/12:25pm 15.2 W 17 27 1017.2 - 0.0 - - - - - - -
28/12:00pm 15.0 W 17 25 1017.3 - 0.0 - - - - - - -
28/11:31am 13.1 W 19 29 1017.5 - 0.0 - - - - - - -
28/11:30am 13.0 W 20 29 1017.5 - 0.0 - - - - - - -
28/11:00am 15.1 W 19 29 1017.5 - 0.0 - - - - - - -
28/10:59am 15.6 W 19 29 1017.5 - 0.0 - - - - - - -
28/10:30am 16.0 W 19 26 1017.3 - 0.0 - - - - - - -
28/10:00am 15.9 WNW 17 24 1017.1 - 0.0 - - - - - - -
28/09:30am 15.6 WNW 17 22 1016.9 F 0.6 Fine Partly cloudy 12 2 5.9 7 SW
28/09:00am 15.2 WNW 18 26 1016.9 - 0.6 - - - - - - -
28/08:40am 14.6 WNW 16 26 1016.8 - 0.6 - - - - - - -
28/08:30am 14.6 WNW 16 22 1016.7 - 0.6 - - - - - - -
28/08:00am 14.4 WNW 15 20 1016.5 - 0.6 - - - - - - -
28/07:30am 13.9 NW 14 18 1016.3 - 0.6 - - - - - - -
28/07:00am 13.1 WNW 13 18 1016.3 - 0.6 - - - - - - -
28/06:30am 13.3 WNW 15 21 1016.1 - 0.6 - - - - - - -
28/06:00am 14.5 NW 14 19 1015.8 - 0.4 - - - - - - -
28/05:30am 14.1 WNW 14 21 1015.7 - 0.4 - - - - - - -
28/05:00am 14.2 WNW 14 18 1015.7 - 0.4 - - - - - - -
28/04:30am 14.1 WNW 14 21 1015.7 - 0.4 - - - - - - -
28/04:00am 14.2 WNW 17 23 1016.1 - 0.4 - - - - - - -
28/03:30am 13.8 NW 13 19 1016.3 - 0.4 - - - - - - -
28/03:00am 14.2 WNW 15 21 1016.5 - 0.4 - - - - - - -
28/02:30am 13.7 W 15 21 1016.4 - 0.4 - - - - - - -
28/02:00am 13.7 WNW 15 24 1016.6 - 0.4 - - - - - - -
28/01:30am 14.2 WNW 15 23 1016.6 - 0.4 - - - - - - -
28/01:00am 13.7 W 13 20 1016.5 - 0.4 - - - - - - -
28/12:30am 15.0 NW 15 20 1016.4 - 0.4 - - - - - - -
28/12:00am 14.9 NW 13 18 1016.7 - 0.4 - - - - - - -
 
Date/Time
EST
Temp

°C
Wind Pressure Rain
since 9am
mm
Weather Cloud Vis
km
Sea
Height
m
Swell
Dir
 
Speed
knots
Gust
knots
hPa Trend Height
m
Period
s
Dir
27/11:30pm 14.8 NW 14 20 1016.9 - 0.4 - - - - - - -
27/11:00pm 14.7 NW 15 21 1017.1 - 0.4 - - - - - - -
27/10:30pm 14.7 NNW 15 19 1017.2 - 0.4 - - - - - - -
27/10:00pm 15.0 NNW 13 17 1017.3 - 0.4 - - - - - - -
27/09:30pm 14.9 NNW 13 17 1017.3 - 0.4 - - - - - - -
27/09:00pm 14.7 NNW 11 15 1017.2 - 0.4 - - - - - - -
27/08:30pm 14.9 NNW 10 15 1017.1 - 0.4 - - - - - - -
27/08:00pm 14.9 NW 11 15 1017.2 - 0.4 - - - - - - -
27/07:30pm 15.0 NW 11 14 1017.2 - 0.4 - - - - - - -
27/07:00pm 15.3 NW 12 15 1017.4 - 0.4 - - - - - - -
27/06:30pm 15.3 NW 12 15 1017.3 - 0.4 - - - - - - -
27/06:00pm 15.1 NW 11 16 1017.1 - 0.4 - - - - - - -
27/05:30pm 15.3 NW 11 14 1017.1 - 0.4 - - - - - - -
27/05:00pm 15.5 NW 11 15 1017.2 - 0.4 - - - - - - -
27/04:30pm 16.0 NW 10 14 1017.2 - 0.4 - - - - - - -
27/04:00pm 16.6 WNW 12 16 1017.1 - 0.4 - - - - - - -
27/03:30pm 16.4 NW 12 17 1017.1 F 0.4 Fine Mostly cloudy 12 1 3.6 8 SW
27/03:00pm 17.0 NW 9 15 1017.1 - 0.4 - - - - - - -
27/02:30pm 16.8 WNW 10 14 1017.1 - 0.4 - - - - - - -
27/02:00pm 16.9 WNW 10 13 1017.4 - 0.4 - - - - - - -
27/01:30pm 16.1 WNW 9 13 1017.7 - 0.4 - - - - - - -
27/01:00pm 17.0 W 9 14 1018.2 - 0.4 - - - - - - -
27/12:30pm 16.9 W 11 13 1018.5 - 0.4 - - - - - - -
27/12:00pm 16.7 W 10 13 1018.8 - 0.4 - - - - - - -
27/11:30am 15.3 W 9 13 1019.1 - 0.4 - - - - - - -
27/11:00am 15.9 NW 10 15 1019.1 - 0.4 - - - - - - -
27/10:30am 14.6 NW 11 17 1019.0 - 0.4 - - - - - - -
27/10:00am 15.5 NW 15 20 1018.8 - 0.2 - - - - - - -
27/09:30am 15.6 NW 15 21 1018.7 F 0.2 Fine Mostly cloudy 15 2 4.3 7 SW
27/09:00am 15.4 NW 15 19 1018.7 - 0.2 - - - - - - -
27/08:30am 15.3 NNW 15 19 1018.3 - 0.2 - - - - - - -
27/08:00am 15.1 NW 13 18 1018.3 - 0.2 - - - - - - -
27/07:30am 15.1 NW 14 19 1018.0 - 0.2 - - - - - - -

Other Formats:

Comma delimited format used in spreadsheet applications
http://www.bom.gov.au/fwo/IDT60701/IDT60701.95805.axf

JavaScript Object Notation format (JSON) in row-major order
http://www.bom.gov.au/fwo/IDT60701/IDT60701.95805.json